sensor_id;sensor_type;location;lat;lon;timestamp;pressure;altitude;pressure_sealevel;temperature;humidity
11499;BME280;5806;48.748;9.278;2023-03-19T00:02:14;100606.78;;;10.95;71.78
11499;BME280;5806;48.748;9.278;2023-03-19T00:04:41;100611.25;;;11.01;71.75
11499;BME280;5806;48.748;9.278;2023-03-19T00:07:09;100619.42;;;10.99;72.79
11499;BME280;5806;48.748;9.278;2023-03-19T00:09:36;100619.58;;;10.92;73.36
11499;BME280;5806;48.748;9.278;2023-03-19T00:12:04;100627.63;;;10.82;74.04
11499;BME280;5806;48.748;9.278;2023-03-19T00:14:32;100620.66;;;10.77;74.11
11499;BME280;5806;48.748;9.278;2023-03-19T00:16:59;100624.52;;;10.79;74.97
11499;BME280;5806;48.748;9.278;2023-03-19T00:19:27;100618.33;;;10.69;74.96
11499;BME280;5806;48.748;9.278;2023-03-19T00:21:55;100623.38;;;10.61;74.71
11499;BME280;5806;48.748;9.278;2023-03-19T00:24:24;100617.12;;;10.77;74.28
11499;BME280;5806;48.748;9.278;2023-03-19T00:26:51;100620.66;;;10.77;73.70
11499;BME280;5806;48.748;9.278;2023-03-19T00:29:19;100619.30;;;10.91;72.80
11499;BME280;5806;48.748;9.278;2023-03-19T00:31:48;100616.32;;;10.79;73.42
11499;BME280;5806;48.748;9.278;2023-03-19T00:34:16;100617.88;;;10.75;74.35
11499;BME280;5806;48.748;9.278;2023-03-19T00:36:44;100613.61;;;10.65;75.11
11499;BME280;5806;48.748;9.278;2023-03-19T00:39:15;100613.45;;;10.57;75.77
11499;BME280;5806;48.748;9.278;2023-03-19T00:41:42;100607.45;;;10.58;75.81
11499;BME280;5806;48.748;9.278;2023-03-19T00:44:11;100615.19;;;10.77;74.55
11499;BME280;5806;48.748;9.278;2023-03-19T00:46:39;100611.48;;;10.69;75.01
11499;BME280;5806;48.748;9.278;2023-03-19T00:49:06;100618.68;;;10.59;75.26
11499;BME280;5806;48.748;9.278;2023-03-19T00:51:34;100612.88;;;10.55;75.54
11499;BME280;5806;48.748;9.278;2023-03-19T00:54:01;100608.49;;;10.54;75.51
11499;BME280;5806;48.748;9.278;2023-03-19T00:56:29;100608.88;;;10.46;75.90
11499;BME280;5806;48.748;9.278;2023-03-19T00:58:56;100615.36;;;10.43;75.93
11499;BME280;5806;48.748;9.278;2023-03-19T01:01:24;100612.86;;;10.41;76.02
11499;BME280;5806;48.748;9.278;2023-03-19T01:03:51;100615.20;;;10.49;75.42
11499;BME280;5806;48.748;9.278;2023-03-19T01:06:19;100620.95;;;10.48;75.43
11499;BME280;5806;48.748;9.278;2023-03-19T01:08:46;100619.45;;;10.43;74.98
11499;BME280;5806;48.748;9.278;2023-03-19T01:11:14;100615.50;;;10.36;75.67
11499;BME280;5806;48.748;9.278;2023-03-19T01:13:44;100612.03;;;10.27;75.60
11499;BME280;5806;48.748;9.278;2023-03-19T01:16:11;100612.22;;;10.23;75.88
11499;BME280;5806;48.748;9.278;2023-03-19T01:18:39;100613.34;;;10.24;75.73
11499;BME280;5806;48.748;9.278;2023-03-19T01:21:07;100604.86;;;10.23;75.80
11499;BME280;5806;48.748;9.278;2023-03-19T01:23:34;100607.78;;;10.33;75.39
11499;BME280;5806;48.748;9.278;2023-03-19T01:26:01;100612.87;;;10.27;75.00
11499;BME280;5806;48.748;9.278;2023-03-19T01:28:30;100617.20;;;10.12;75.66
11499;BME280;5806;48.748;9.278;2023-03-19T01:30:59;100619.39;;;10.00;75.96
11499;BME280;5806;48.748;9.278;2023-03-19T01:33:27;100622.97;;;10.01;76.22
11499;BME280;5806;48.748;9.278;2023-03-19T01:35:54;100608.89;;;9.95;75.58
11499;BME280;5806;48.748;9.278;2023-03-19T01:38:24;100612.04;;;9.89;75.80
11499;BME280;5806;48.748;9.278;2023-03-19T01:40:51;100614.95;;;9.85;76.26
11499;BME280;5806;48.748;9.278;2023-03-19T01:43:21;100614.72;;;9.87;75.83
11499;BME280;5806;48.748;9.278;2023-03-19T01:45:50;100617.77;;;9.76;76.73
11499;BME280;5806;48.748;9.278;2023-03-19T01:48:29;100616.56;;;9.84;76.46
11499;BME280;5806;48.748;9.278;2023-03-19T01:50:52;100611.52;;;9.78;76.67
11499;BME280;5806;48.748;9.278;2023-03-19T01:53:23;100613.15;;;9.77;76.55
11499;BME280;5806;48.748;9.278;2023-03-19T01:55:54;100615.80;;;9.74;76.53
11499;BME280;5806;48.748;9.278;2023-03-19T01:58:21;100610.17;;;9.67;76.44
11499;BME280;5806;48.748;9.278;2023-03-19T02:00:49;100618.38;;;9.55;76.92
11499;BME280;5806;48.748;9.278;2023-03-19T02:03:16;100616.36;;;9.51;76.79
11499;BME280;5806;48.748;9.278;2023-03-19T02:05:45;100613.09;;;9.63;76.40
11499;BME280;5806;48.748;9.278;2023-03-19T02:08:15;100613.57;;;9.48;76.70
11499;BME280;5806;48.748;9.278;2023-03-19T02:10:45;100612.44;;;9.47;77.11
11499;BME280;5806;48.748;9.278;2023-03-19T02:13:13;100611.27;;;9.54;76.63
11499;BME280;5806;48.748;9.278;2023-03-19T02:15:41;100605.26;;;9.55;76.67
11499;BME280;5806;48.748;9.278;2023-03-19T02:18:09;100607.80;;;9.59;76.71
11499;BME280;5806;48.748;9.278;2023-03-19T02:20:43;100607.80;;;9.59;76.66
11499;BME280;5806;48.748;9.278;2023-03-19T02:23:44;100597.53;;;9.52;76.29
11499;BME280;5806;48.748;9.278;2023-03-19T02:26:17;100608.28;;;9.67;76.39
11499;BME280;5806;48.748;9.278;2023-03-19T02:28:47;100607.31;;;9.73;75.79
11499;BME280;5806;48.748;9.278;2023-03-19T02:31:16;100612.72;;;9.71;76.08
11499;BME280;5806;48.748;9.278;2023-03-19T02:33:55;100608.97;;;9.74;75.91
11499;BME280;5806;48.748;9.278;2023-03-19T02:36:16;100612.15;;;9.69;76.23
11499;BME280;5806;48.748;9.278;2023-03-19T02:38:46;100610.86;;;9.85;75.79
11499;BME280;5806;48.748;9.278;2023-03-19T02:41:14;100608.94;;;9.60;76.71
11499;BME280;5806;48.748;9.278;2023-03-19T02:43:41;100612.02;;;9.75;76.01
11499;BME280;5806;48.748;9.278;2023-03-19T02:46:11;100604.11;;;9.76;75.85
11499;BME280;5806;48.748;9.278;2023-03-19T02:48:39;100598.88;;;9.75;75.71
11499;BME280;5806;48.748;9.278;2023-03-19T02:51:06;100606.19;;;9.83;75.68
11499;BME280;5806;48.748;9.278;2023-03-19T02:53:34;100608.27;;;9.79;75.75
11499;BME280;5806;48.748;9.278;2023-03-19T02:56:01;100606.81;;;9.88;75.65
11499;BME280;5806;48.748;9.278;2023-03-19T02:58:29;100612.33;;;9.90;75.68
11499;BME280;5806;48.748;9.278;2023-03-19T03:00:56;100610.95;;;9.90;75.46
11499;BME280;5806;48.748;9.278;2023-03-19T03:03:24;100613.03;;;9.97;75.60
11499;BME280;5806;48.748;9.278;2023-03-19T03:05:51;100607.66;;;9.88;75.48
11499;BME280;5806;48.748;9.278;2023-03-19T03:08:19;100609.78;;;9.98;75.41
11499;BME280;5806;48.748;9.278;2023-03-19T03:10:46;100609.73;;;9.95;75.51
11499;BME280;5806;48.748;9.278;2023-03-19T03:13:14;100609.63;;;10.16;74.66
11499;BME280;5806;48.748;9.278;2023-03-19T03:15:42;100607.78;;;10.19;74.87
11499;BME280;5806;48.748;9.278;2023-03-19T03:18:10;100604.93;;;10.40;74.19
11499;BME280;5806;48.748;9.278;2023-03-19T03:20:37;100606.27;;;10.26;75.14
11499;BME280;5806;48.748;9.278;2023-03-19T03:23:04;100606.30;;;10.40;72.94
11499;BME280;5806;48.748;9.278;2023-03-19T03:25:32;100596.75;;;10.28;74.94
11499;BME280;5806;48.748;9.278;2023-03-19T03:27:59;100607.03;;;10.09;76.08
11499;BME280;5806;48.748;9.278;2023-03-19T03:30:27;100609.76;;;10.21;74.88
11499;BME280;5806;48.748;9.278;2023-03-19T03:32:54;100609.30;;;10.27;74.62
11499;BME280;5806;48.748;9.278;2023-03-19T03:35:22;100607.64;;;10.26;74.86
11499;BME280;5806;48.748;9.278;2023-03-19T03:37:50;100615.70;;;10.18;75.33
11499;BME280;5806;48.748;9.278;2023-03-19T03:40:18;100623.61;;;10.17;74.63
11499;BME280;5806;48.748;9.278;2023-03-19T03:42:45;100625.64;;;10.64;72.77
11499;BME280;5806;48.748;9.278;2023-03-19T03:45:13;100621.06;;;10.69;71.31
11499;BME280;5806;48.748;9.278;2023-03-19T03:47:40;100618.40;;;10.72;71.11
11499;BME280;5806;48.748;9.278;2023-03-19T03:50:08;100624.73;;;10.89;71.45
11499;BME280;5806;48.748;9.278;2023-03-19T03:52:38;100622.42;;;10.69;73.17
11499;BME280;5806;48.748;9.278;2023-03-19T03:55:06;100627.31;;;10.53;73.71
11499;BME280;5806;48.748;9.278;2023-03-19T03:57:35;100631.47;;;10.42;74.28
11499;BME280;5806;48.748;9.278;2023-03-19T04:00:04;100628.83;;;10.47;74.43
11499;BME280;5806;48.748;9.278;2023-03-19T04:02:31;100630.30;;;10.66;73.28
11499;BME280;5806;48.748;9.278;2023-03-19T04:04:59;100632.31;;;10.56;73.85
11499;BME280;5806;48.748;9.278;2023-03-19T04:07:26;100638.36;;;10.44;74.53
11499;BME280;5806;48.748;9.278;2023-03-19T04:09:58;100635.69;;;10.61;74.10
11499;BME280;5806;48.748;9.278;2023-03-19T04:12:26;100639.31;;;10.64;73.80
11499;BME280;5806;48.748;9.278;2023-03-19T04:14:53;100637.58;;;10.60;73.86
11499;BME280;5806;48.748;9.278;2023-03-19T04:17:21;100632.55;;;10.55;74.22
11499;BME280;5806;48.748;9.278;2023-03-19T04:19:49;100633.06;;;10.52;74.29
11499;BME280;5806;48.748;9.278;2023-03-19T04:22:17;100641.70;;;10.46;74.16
11499;BME280;5806;48.748;9.278;2023-03-19T04:24:44;100645.86;;;10.37;75.04
11499;BME280;5806;48.748;9.278;2023-03-19T04:27:12;100638.64;;;10.31;75.27
11499;BME280;5806;48.748;9.278;2023-03-19T04:29:39;100645.20;;;10.18;75.26
11499;BME280;5806;48.748;9.278;2023-03-19T04:32:07;100645.67;;;10.27;75.12
11499;BME280;5806;48.748;9.278;2023-03-19T04:34:34;100651.71;;;10.29;74.90
11499;BME280;5806;48.748;9.278;2023-03-19T04:37:02;100644.97;;;10.20;75.12
11499;BME280;5806;48.748;9.278;2023-03-19T04:39:30;100651.52;;;10.19;75.32
11499;BME280;5806;48.748;9.278;2023-03-19T04:41:58;100653.07;;;10.15;75.29
11499;BME280;5806;48.748;9.278;2023-03-19T04:44:26;100653.49;;;10.09;75.19
11499;BME280;5806;48.748;9.278;2023-03-19T04:46:53;100650.44;;;10.20;74.19
11499;BME280;5806;48.748;9.278;2023-03-19T04:49:21;100654.34;;;10.36;72.94
11499;BME280;5806;48.748;9.278;2023-03-19T04:51:50;100659.53;;;10.37;72.80
11499;BME280;5806;48.748;9.278;2023-03-19T04:54:17;100661.50;;;10.53;72.61
11499;BME280;5806;48.748;9.278;2023-03-19T04:56:45;100666.91;;;10.62;71.04
11499;BME280;5806;48.748;9.278;2023-03-19T04:59:13;100667.72;;;10.49;73.02
11499;BME280;5806;48.748;9.278;2023-03-19T05:01:40;100671.41;;;10.29;73.74
11499;BME280;5806;48.748;9.278;2023-03-19T05:04:08;100669.99;;;10.40;73.35
11499;BME280;5806;48.748;9.278;2023-03-19T05:06:36;100664.63;;;10.45;72.67
11499;BME280;5806;48.748;9.278;2023-03-19T05:09:05;100670.59;;;10.56;72.86
11499;BME280;5806;48.748;9.278;2023-03-19T05:11:33;100674.55;;;10.49;73.52
11499;BME280;5806;48.748;9.278;2023-03-19T05:14:00;100679.18;;;10.34;73.73
11499;BME280;5806;48.748;9.278;2023-03-19T05:16:28;100674.19;;;10.31;74.02
11499;BME280;5806;48.748;9.278;2023-03-19T05:18:56;100679.73;;;10.22;74.91
11499;BME280;5806;48.748;9.278;2023-03-19T05:21:23;100683.23;;;10.46;72.63
11499;BME280;5806;48.748;9.278;2023-03-19T05:23:52;100681.11;;;10.48;73.11
11499;BME280;5806;48.748;9.278;2023-03-19T05:26:20;100679.84;;;10.41;73.11
11499;BME280;5806;48.748;9.278;2023-03-19T05:28:47;100679.66;;;10.45;73.13
11499;BME280;5806;48.748;9.278;2023-03-19T05:31:15;100684.41;;;10.50;73.58
11499;BME280;5806;48.748;9.278;2023-03-19T05:33:42;100688.94;;;10.44;73.53
11499;BME280;5806;48.748;9.278;2023-03-19T05:36:10;100688.23;;;10.49;73.19
11499;BME280;5806;48.748;9.278;2023-03-19T05:38:38;100691.44;;;10.46;73.70
11499;BME280;5806;48.748;9.278;2023-03-19T05:41:06;100694.50;;;10.49;74.44
11499;BME280;5806;48.748;9.278;2023-03-19T05:43:34;100690.58;;;10.71;71.35
11499;BME280;5806;48.748;9.278;2023-03-19T05:46:02;100692.50;;;10.70;71.14
11499;BME280;5806;48.748;9.278;2023-03-19T05:48:29;100691.27;;;10.78;71.07
11499;BME280;5806;48.748;9.278;2023-03-19T05:50:57;100686.32;;;10.77;71.85
11499;BME280;5806;48.748;9.278;2023-03-19T05:53:25;100688.94;;;10.84;70.18
11499;BME280;5806;48.748;9.278;2023-03-19T05:55:52;100691.77;;;10.89;70.36
11499;BME280;5806;48.748;9.278;2023-03-19T05:58:20;100695.11;;;10.93;71.75
11499;BME280;5806;48.748;9.278;2023-03-19T06:00:47;100700.89;;;10.80;72.19
11499;BME280;5806;48.748;9.278;2023-03-19T06:03:16;100700.73;;;10.87;71.59
11499;BME280;5806;48.748;9.278;2023-03-19T06:05:43;100710.12;;;10.91;71.80
11499;BME280;5806;48.748;9.278;2023-03-19T06:08:11;100706.16;;;10.84;70.16
11499;BME280;5806;48.748;9.278;2023-03-19T06:10:38;100707.08;;;11.04;68.90
11499;BME280;5806;48.748;9.278;2023-03-19T06:13:06;100706.95;;;11.10;69.02
11499;BME280;5806;48.748;9.278;2023-03-19T06:15:33;100714.08;;;11.11;68.98
11499;BME280;5806;48.748;9.278;2023-03-19T06:18:01;100713.80;;;11.10;69.00
11499;BME280;5806;48.748;9.278;2023-03-19T06:20:28;100712.47;;;11.13;68.51
11499;BME280;5806;48.748;9.278;2023-03-19T06:22:56;100716.06;;;11.30;68.71
11499;BME280;5806;48.748;9.278;2023-03-19T06:25:23;100719.11;;;11.17;68.86
11499;BME280;5806;48.748;9.278;2023-03-19T06:27:51;100719.88;;;11.15;69.42
11499;BME280;5806;48.748;9.278;2023-03-19T06:30:18;100723.30;;;11.22;68.63
11499;BME280;5806;48.748;9.278;2023-03-19T06:32:46;100727.53;;;11.29;68.51
11499;BME280;5806;48.748;9.278;2023-03-19T06:35:13;100723.87;;;11.38;67.97
11499;BME280;5806;48.748;9.278;2023-03-19T06:37:41;100723.27;;;11.36;68.75
11499;BME280;5806;48.748;9.278;2023-03-19T06:40:09;100724.03;;;11.31;69.27
11499;BME280;5806;48.748;9.278;2023-03-19T06:42:37;100719.44;;;11.34;68.49
11499;BME280;5806;48.748;9.278;2023-03-19T06:45:05;100724.02;;;11.48;67.71
11499;BME280;5806;48.748;9.278;2023-03-19T06:47:32;100724.02;;;11.48;67.97
11499;BME280;5806;48.748;9.278;2023-03-19T06:50:00;100738.88;;;11.52;68.16
11499;BME280;5806;48.748;9.278;2023-03-19T06:52:28;100737.98;;;11.60;67.44
11499;BME280;5806;48.748;9.278;2023-03-19T06:54:55;100740.52;;;11.64;66.98
11499;BME280;5806;48.748;9.278;2023-03-19T06:57:22;100741.39;;;11.67;66.68
11499;BME280;5806;48.748;9.278;2023-03-19T06:59:50;100736.41;;;11.64;67.09
11499;BME280;5806;48.748;9.278;2023-03-19T07:02:17;100744.09;;;11.65;67.20
11499;BME280;5806;48.748;9.278;2023-03-19T07:04:45;100740.80;;;11.65;66.87
11499;BME280;5806;48.748;9.278;2023-03-19T07:07:12;100743.01;;;11.66;67.42
11499;BME280;5806;48.748;9.278;2023-03-19T07:09:40;100746.56;;;11.66;67.76
11499;BME280;5806;48.748;9.278;2023-03-19T07:12:07;100749.50;;;11.62;67.68
11499;BME280;5806;48.748;9.278;2023-03-19T07:14:35;100745.00;;;11.56;67.64
11499;BME280;5806;48.748;9.278;2023-03-19T07:17:03;100750.85;;;11.76;66.63
11499;BME280;5806;48.748;9.278;2023-03-19T07:19:30;100762.86;;;11.73;67.06
11499;BME280;5806;48.748;9.278;2023-03-19T07:21:58;100770.52;;;11.73;67.08
11499;BME280;5806;48.748;9.278;2023-03-19T07:24:25;100769.79;;;11.78;66.60
11499;BME280;5806;48.748;9.278;2023-03-19T07:26:53;100771.69;;;11.77;66.71
11499;BME280;5806;48.748;9.278;2023-03-19T07:29:20;100777.70;;;11.60;68.15
11499;BME280;5806;48.748;9.278;2023-03-19T07:31:48;100780.52;;;11.65;67.79
11499;BME280;5806;48.748;9.278;2023-03-19T07:34:16;100780.11;;;11.73;67.48
11499;BME280;5806;48.748;9.278;2023-03-19T07:36:43;100777.58;;;11.69;67.51
11499;BME280;5806;48.748;9.278;2023-03-19T07:39:12;100785.87;;;11.74;67.89
11499;BME280;5806;48.748;9.278;2023-03-19T07:41:40;100786.59;;;11.67;68.07
11499;BME280;5806;48.748;9.278;2023-03-19T07:44:09;100784.67;;;11.68;66.95
11499;BME280;5806;48.748;9.278;2023-03-19T07:46:37;100786.08;;;11.70;67.41
11499;BME280;5806;48.748;9.278;2023-03-19T07:49:04;100788.97;;;11.78;67.33
11499;BME280;5806;48.748;9.278;2023-03-19T07:51:33;100788.84;;;11.87;67.24
11499;BME280;5806;48.748;9.278;2023-03-19T07:54:01;100789.50;;;11.77;67.38
11499;BME280;5806;48.748;9.278;2023-03-19T07:56:28;100785.80;;;11.69;67.93
11499;BME280;5806;48.748;9.278;2023-03-19T07:58:56;100788.12;;;11.77;67.51
11499;BME280;5806;48.748;9.278;2023-03-19T08:01:25;100789.98;;;11.74;67.24
11499;BME280;5806;48.748;9.278;2023-03-19T08:03:53;100786.47;;;11.76;67.37
11499;BME280;5806;48.748;9.278;2023-03-19T08:06:20;100789.23;;;11.93;66.50
11499;BME280;5806;48.748;9.278;2023-03-19T08:08:48;100782.45;;;11.98;66.52
11499;BME280;5806;48.748;9.278;2023-03-19T08:11:16;100783.19;;;11.93;66.59
11499;BME280;5806;48.748;9.278;2023-03-19T08:13:44;100784.03;;;11.94;67.03
11499;BME280;5806;48.748;9.278;2023-03-19T08:16:12;100786.15;;;12.06;66.46
11499;BME280;5806;48.748;9.278;2023-03-19T08:18:39;100793.56;;;12.08;66.44
11499;BME280;5806;48.748;9.278;2023-03-19T08:21:07;100792.09;;;12.00;66.66
11499;BME280;5806;48.748;9.278;2023-03-19T08:23:35;100795.88;;;12.16;66.44
11499;BME280;5806;48.748;9.278;2023-03-19T08:26:02;100795.11;;;12.18;66.63
11499;BME280;5806;48.748;9.278;2023-03-19T08:28:30;100790.41;;;12.16;66.97
11499;BME280;5806;48.748;9.278;2023-03-19T08:30:57;100798.98;;;12.19;66.62
11499;BME280;5806;48.748;9.278;2023-03-19T08:33:25;100801.75;;;12.41;66.79
11499;BME280;5806;48.748;9.278;2023-03-19T08:35:52;100770.73;;;12.38;66.58
11499;BME280;5806;48.748;9.278;2023-03-19T08:38:20;100798.95;;;12.55;65.55
11499;BME280;5806;48.748;9.278;2023-03-19T08:40:47;100802.78;;;12.54;65.35
11499;BME280;5806;48.748;9.278;2023-03-19T08:43:15;100805.42;;;12.49;67.08
11499;BME280;5806;48.748;9.278;2023-03-19T08:45:44;100811.31;;;12.38;66.04
11499;BME280;5806;48.748;9.278;2023-03-19T08:48:11;100811.20;;;12.47;66.20
11499;BME280;5806;48.748;9.278;2023-03-19T08:50:39;100810.67;;;12.50;66.39
11499;BME280;5806;48.748;9.278;2023-03-19T08:53:07;100820.17;;;12.43;66.77
11499;BME280;5806;48.748;9.278;2023-03-19T08:55:38;100813.16;;;12.52;66.07
11499;BME280;5806;48.748;9.278;2023-03-19T08:58:38;100807.45;;;12.56;65.79
11499;BME280;5806;48.748;9.278;2023-03-19T09:01:12;100813.16;;;12.52;66.03
11499;BME280;5806;48.748;9.278;2023-03-19T09:03:42;100817.46;;;12.45;66.74
11499;BME280;5806;48.748;9.278;2023-03-19T09:06:12;100819.77;;;12.53;66.05
11499;BME280;5806;48.748;9.278;2023-03-19T09:08:43;100814.53;;;12.52;65.89
11499;BME280;5806;48.748;9.278;2023-03-19T09:11:10;100821.17;;;12.56;66.22
11499;BME280;5806;48.748;9.278;2023-03-19T09:13:39;100818.15;;;12.55;66.05
11499;BME280;5806;48.748;9.278;2023-03-19T09:16:08;100814.47;;;12.66;66.05
11499;BME280;5806;48.748;9.278;2023-03-19T09:18:36;100824.05;;;12.63;66.83
11499;BME280;5806;48.748;9.278;2023-03-19T09:21:04;100822.98;;;12.67;66.35
11499;BME280;5806;48.748;9.278;2023-03-19T09:23:36;100816.22;;;12.74;66.09
11499;BME280;5806;48.748;9.278;2023-03-19T09:26:01;100823.73;;;12.81;65.30
11499;BME280;5806;48.748;9.278;2023-03-19T09:28:28;100825.98;;;12.84;65.09
11499;BME280;5806;48.748;9.278;2023-03-19T09:30:56;100831.22;;;12.86;65.38
11499;BME280;5806;48.748;9.278;2023-03-19T09:33:28;100830.19;;;12.92;65.29
11499;BME280;5806;48.748;9.278;2023-03-19T09:36:14;100828.78;;;12.89;65.42
11499;BME280;5806;48.748;9.278;2023-03-19T09:38:43;100821.53;;;13.00;64.97
11499;BME280;5806;48.748;9.278;2023-03-19T09:41:34;100830.70;;;13.08;65.22
11499;BME280;5806;48.748;9.278;2023-03-19T09:44:02;100831.89;;;13.17;64.69
11499;BME280;5806;48.748;9.278;2023-03-19T09:46:36;100830.84;;;13.18;65.02
11499;BME280;5806;48.748;9.278;2023-03-19T09:49:13;100836.86;;;13.17;65.14
11499;BME280;5806;48.748;9.278;2023-03-19T09:51:53;100831.75;;;13.26;64.29
11499;BME280;5806;48.748;9.278;2023-03-19T10:26:23;100845.64;;;13.41;64.33
11499;BME280;5806;48.748;9.278;2023-03-19T10:28:57;100846.77;;;13.42;63.25
11499;BME280;5806;48.748;9.278;2023-03-19T10:31:27;100849.25;;;13.44;64.25
11499;BME280;5806;48.748;9.278;2023-03-19T10:36:36;100852.97;;;13.33;64.35
11499;BME280;5806;48.748;9.278;2023-03-19T10:39:04;100853.22;;;13.31;64.19
11499;BME280;5806;48.748;9.278;2023-03-19T10:44:26;100858.20;;;13.34;64.70
11499;BME280;5806;48.748;9.278;2023-03-19T10:46:49;100864.16;;;13.26;64.98
11499;BME280;5806;48.748;9.278;2023-03-19T10:49:17;100856.16;;;13.25;64.03
11499;BME280;5806;48.748;9.278;2023-03-19T10:51:45;100849.05;;;13.26;64.84
11499;BME280;5806;48.748;9.278;2023-03-19T10:54:21;100857.23;;;13.21;64.88
11499;BME280;5806;48.748;9.278;2023-03-19T10:56:50;100846.47;;;13.17;64.14
11499;BME280;5806;48.748;9.278;2023-03-19T10:59:36;100859.59;;;13.13;65.30
11499;BME280;5806;48.748;9.278;2023-03-19T11:02:24;100863.66;;;12.91;66.82
11499;BME280;5806;48.748;9.278;2023-03-19T11:07:42;100868.28;;;12.86;69.55
11499;BME280;5806;48.748;9.278;2023-03-19T11:10:17;100868.21;;;13.00;68.91
11499;BME280;5806;48.748;9.278;2023-03-19T11:12:51;100871.83;;;13.03;69.09
11499;BME280;5806;48.748;9.278;2023-03-19T11:15:22;100870.77;;;13.06;67.98
11499;BME280;5806;48.748;9.278;2023-03-19T11:17:55;100870.91;;;13.16;68.47
11499;BME280;5806;48.748;9.278;2023-03-19T11:20:31;100859.98;;;13.21;67.75
11499;BME280;5806;48.748;9.278;2023-03-19T11:23:01;100864.30;;;13.36;67.38
11499;BME280;5806;48.748;9.278;2023-03-19T11:25:37;100863.30;;;13.47;66.47
11499;BME280;5806;48.748;9.278;2023-03-19T11:28:09;100866.07;;;13.50;66.14
11499;BME280;5806;48.748;9.278;2023-03-19T11:36:21;100859.25;;;13.52;64.65
11499;BME280;5806;48.748;9.278;2023-03-19T11:38:56;100856.51;;;13.52;64.79
11499;BME280;5806;48.748;9.278;2023-03-19T11:44:32;100852.45;;;13.60;65.18
11499;BME280;5806;48.748;9.278;2023-03-19T11:47:10;100855.97;;;13.55;65.48
11499;BME280;5806;48.748;9.278;2023-03-19T11:52:10;100854.91;;;13.56;64.77
11499;BME280;5806;48.748;9.278;2023-03-19T12:05:28;100852.09;;;13.54;66.30
11499;BME280;5806;48.748;9.278;2023-03-19T12:08:04;100852.30;;;13.47;65.96
11499;BME280;5806;48.748;9.278;2023-03-19T12:10:58;100853.17;;;13.50;66.27
11499;BME280;5806;48.748;9.278;2023-03-19T12:19:21;100851.94;;;13.89;65.14
11499;BME280;5806;48.748;9.278;2023-03-19T12:27:31;100846.59;;;14.38;65.44
11499;BME280;5806;48.748;9.278;2023-03-19T12:35:36;100838.84;;;14.30;65.01
11499;BME280;5806;48.748;9.278;2023-03-19T12:38:19;100834.21;;;14.80;63.96
11499;BME280;5806;48.748;9.278;2023-03-19T12:43:33;100834.95;;;14.26;62.54
11499;BME280;5806;48.748;9.278;2023-03-19T12:48:46;100838.48;;;14.22;62.48
11499;BME280;5806;48.748;9.278;2023-03-19T12:51:11;100828.34;;;14.27;62.95
11499;BME280;5806;48.748;9.278;2023-03-19T13:02:32;100831.62;;;14.24;62.32
11499;BME280;5806;48.748;9.278;2023-03-19T13:05:08;100832.58;;;14.40;61.68
11499;BME280;5806;48.748;9.278;2023-03-19T13:07:56;100824.20;;;14.25;61.48
11499;BME280;5806;48.748;9.278;2023-03-19T13:10:22;100829.27;;;14.40;61.67
11499;BME280;5806;48.748;9.278;2023-03-19T13:12:51;100828.88;;;14.63;60.83
11499;BME280;5806;48.748;9.278;2023-03-19T13:18:16;100834.48;;;14.78;60.69
11499;BME280;5806;48.748;9.278;2023-03-19T13:23:39;100826.36;;;14.57;60.43
11499;BME280;5806;48.748;9.278;2023-03-19T13:26:10;100829.71;;;14.64;60.54
11499;BME280;5806;48.748;9.278;2023-03-19T13:31:32;100826.14;;;14.68;59.28
11499;BME280;5806;48.748;9.278;2023-03-19T13:34:06;100825.22;;;14.50;61.00
11499;BME280;5806;48.748;9.278;2023-03-19T13:36:38;100822.98;;;14.45;61.18
11499;BME280;5806;48.748;9.278;2023-03-19T13:39:11;100827.89;;;14.40;62.23
11499;BME280;5806;48.748;9.278;2023-03-19T13:44:27;100824.81;;;14.32;61.35
11499;BME280;5806;48.748;9.278;2023-03-19T13:46:54;100813.24;;;14.32;62.14
11499;BME280;5806;48.748;9.278;2023-03-19T13:49:25;100821.21;;;14.29;61.43
11499;BME280;5806;48.748;9.278;2023-03-19T13:51:58;100818.46;;;14.29;62.05
11499;BME280;5806;48.748;9.278;2023-03-19T13:54:35;100820.69;;;14.32;62.60
11499;BME280;5806;48.748;9.278;2023-03-19T13:57:15;100814.62;;;14.32;62.69
11499;BME280;5806;48.748;9.278;2023-03-19T13:59:38;100812.48;;;14.39;61.69
11499;BME280;5806;48.748;9.278;2023-03-19T14:07:26;100813.84;;;14.37;63.46
11499;BME280;5806;48.748;9.278;2023-03-19T14:12:36;100811.19;;;14.18;63.79
11499;BME280;5806;48.748;9.278;2023-03-19T14:28:56;100808.62;;;14.40;64.25
11499;BME280;5806;48.748;9.278;2023-03-19T14:37:24;100811.69;;;14.41;65.93
11499;BME280;5806;48.748;9.278;2023-03-19T14:39:33;100808.87;;;14.83;65.13
11499;BME280;5806;48.748;9.278;2023-03-19T14:44:48;100810.98;;;14.66;64.05
11499;BME280;5806;48.748;9.278;2023-03-19T14:50:35;100813.99;;;14.62;61.72
11499;BME280;5806;48.748;9.278;2023-03-19T14:53:10;100814.73;;;14.47;60.90
11499;BME280;5806;48.748;9.278;2023-03-19T14:55:40;100818.25;;;14.40;60.87
11499;BME280;5806;48.748;9.278;2023-03-19T14:58:11;100822.38;;;14.38;59.68
11499;BME280;5806;48.748;9.278;2023-03-19T15:00:52;100825.30;;;14.21;60.28
11499;BME280;5806;48.748;9.278;2023-03-19T15:03:28;100816.64;;;14.10;61.30
11499;BME280;5806;48.748;9.278;2023-03-19T15:05:55;100826.45;;;13.99;60.86
11499;BME280;5806;48.748;9.278;2023-03-19T15:08:22;100827.27;;;13.99;62.36
11499;BME280;5806;48.748;9.278;2023-03-19T15:11:03;100832.77;;;13.99;62.34
11499;BME280;5806;48.748;9.278;2023-03-19T15:16:25;100840.70;;;13.93;62.92
11499;BME280;5806;48.748;9.278;2023-03-19T15:18:50;100845.55;;;13.84;64.31
11499;BME280;5806;48.748;9.278;2023-03-19T15:21:19;100849.89;;;13.77;64.57
11499;BME280;5806;48.748;9.278;2023-03-19T15:23:49;100859.28;;;13.81;64.73
11499;BME280;5806;48.748;9.278;2023-03-19T15:26:27;100862.22;;;13.72;65.38
11499;BME280;5806;48.748;9.278;2023-03-19T15:28:50;100867.41;;;13.71;65.22
11499;BME280;5806;48.748;9.278;2023-03-19T15:31:18;100877.19;;;13.60;66.32
11499;BME280;5806;48.748;9.278;2023-03-19T15:33:46;100874.54;;;13.46;67.97
11499;BME280;5806;48.748;9.278;2023-03-19T15:36:27;100874.91;;;13.30;69.30